createdAt,value
2022-07-26T01:23:31.866Z,23.60
2022-07-26T01:30:37.564Z,23.50
2022-07-26T01:41:03.562Z,23.40
2022-07-26T01:44:28.290Z,23.30
2022-07-26T01:47:18.225Z,23.40
2022-07-26T02:00:36.235Z,23.40
2022-07-26T04:41:06.425Z,22.30
2022-07-26T08:10:02.647Z,24.70
2022-07-26T08:14:47.405Z,24.80
2022-07-26T08:19:19.098Z,24.70
2022-07-26T08:22:24.867Z,24.80
2022-07-26T08:25:10.788Z,25.00
2022-07-26T08:28:04.114Z,25.10
2022-07-26T08:30:50.250Z,25.10
2022-07-26T08:33:35.681Z,25.10
2022-07-26T08:37:15.964Z,25.30
2022-07-26T08:40:26.815Z,25.50
2022-07-26T08:43:12.459Z,25.60
2022-07-26T08:46:02.246Z,25.70
2022-07-26T08:48:48.322Z,25.90
2022-07-26T08:51:34.241Z,26.20
2022-07-26T08:54:21.126Z,26.20
2022-07-26T08:57:06.750Z,25.90
2022-07-26T09:00:14.420Z,25.50
2022-07-26T09:03:03.148Z,25.50
2022-07-26T09:05:49.294Z,25.50
2022-07-26T09:11:36.422Z,26.20
2022-07-26T09:14:22.237Z,26.40
2022-07-26T09:17:38.751Z,26.50
2022-07-26T09:20:49.939Z,27.10
2022-07-26T09:23:42.719Z,27.10
2022-07-26T09:26:28.814Z,27.50
2022-07-26T09:33:53.942Z,28.10
2022-07-26T09:36:53.256Z,27.90
2022-07-26T09:40:19.656Z,27.70
2022-07-26T09:43:10.069Z,27.60
2022-07-26T09:46:36.068Z,27.50
2022-07-26T09:49:40.620Z,27.20
2022-07-26T09:52:58.429Z,26.90
2022-07-26T09:55:47.207Z,27.10
2022-07-26T09:58:33.747Z,27.10
2022-07-26T10:01:19.566Z,27.20
2022-07-26T10:04:05.635Z,27.50
2022-07-26T10:06:51.927Z,27.60
2022-07-26T10:09:49.043Z,27.30
2022-07-26T10:12:36.029Z,27.30
2022-07-26T10:15:40.866Z,27.60
2022-07-26T10:19:02.739Z,27.60
2022-07-26T10:22:34.479Z,27.70
2022-07-26T10:25:20.064Z,27.60
2022-07-26T10:28:11.997Z,27.50
2022-07-26T10:31:25.236Z,27.70
2022-07-26T10:34:11.118Z,27.60
2022-07-26T10:37:41.996Z,27.30
2022-07-26T10:40:30.361Z,26.60
2022-07-26T10:46:26.984Z,26.40
2022-07-26T10:49:19.281Z,26.60
2022-07-26T10:55:57.454Z,27.00
2022-07-26T10:58:43.903Z,27.10
2022-07-26T11:01:43.210Z,27.60
2022-07-26T11:04:28.826Z,28.20
2022-07-26T11:07:14.390Z,28.60
2022-07-26T11:10:01.022Z,28.50
2022-07-26T11:12:46.408Z,28.20
2022-07-26T11:15:35.633Z,28.40
2022-07-26T11:18:27.841Z,29.00
2022-07-26T11:21:18.024Z,29.10
2022-07-26T11:24:04.176Z,28.60
2022-07-26T11:26:50.173Z,28.80
2022-07-26T11:29:38.603Z,29.30
2022-07-26T11:32:26.705Z,29.70
2022-07-26T11:35:12.715Z,29.60
2022-07-26T11:38:11.511Z,29.40
2022-07-26T11:40:58.114Z,29.70
2022-07-26T11:43:43.747Z,29.80
2022-07-26T11:46:35.459Z,30.00
2022-07-26T11:49:41.496Z,30.20
2022-07-26T11:52:31.759Z,30.30
2022-07-26T11:55:26.521Z,30.70
2022-07-26T11:58:12.213Z,30.50
2022-07-26T12:00:57.782Z,30.60
2022-07-26T12:03:45.757Z,30.50
2022-07-26T12:06:38.656Z,30.40
2022-07-26T12:09:34.186Z,30.50
2022-07-26T12:12:21.993Z,30.20
2022-07-26T12:15:08.009Z,30.10
2022-07-26T12:18:00.311Z,30.40
2022-07-26T12:21:07.973Z,30.70
2022-07-26T12:23:54.187Z,30.80
2022-07-26T12:26:40.799Z,31.00
2022-07-26T12:29:34.165Z,31.30
2022-07-26T12:32:30.545Z,31.20
2022-07-26T12:35:25.283Z,31.00
2022-07-26T12:38:10.711Z,31.10
2022-07-26T12:40:56.263Z,30.50
2022-07-26T12:43:41.791Z,30.50
2022-07-26T12:46:27.751Z,30.40
2022-07-26T12:49:13.354Z,30.80
2022-07-26T12:51:59.096Z,30.60
2022-07-26T12:54:46.736Z,30.60
2022-07-26T12:57:33.488Z,31.00
2022-07-26T13:00:22.997Z,30.90
2022-07-26T13:03:08.645Z,30.70
2022-07-26T13:05:54.257Z,30.40
2022-07-26T13:08:39.935Z,30.00
2022-07-26T13:11:25.510Z,29.90
2022-07-26T13:14:11.815Z,30.40
2022-07-26T13:17:01.095Z,30.10
2022-07-26T13:19:46.994Z,30.40
2022-07-26T13:22:32.888Z,31.00
2022-07-26T13:25:18.859Z,30.90
2022-07-26T13:28:05.862Z,31.00
2022-07-26T13:30:51.471Z,31.10
2022-07-26T13:33:39.237Z,31.00
2022-07-26T13:36:25.259Z,30.90
2022-07-26T13:39:10.902Z,30.70
2022-07-26T13:41:56.687Z,30.40
2022-07-26T13:44:42.492Z,30.40
2022-07-26T13:47:54.090Z,30.40
2022-07-26T13:50:40.552Z,30.30
2022-07-26T13:53:26.285Z,29.90
2022-07-26T13:57:02.889Z,29.80
2022-07-26T14:00:40.015Z,29.90
2022-07-26T14:04:15.526Z,30.20
2022-07-26T14:07:01.916Z,30.10
2022-07-26T14:10:13.075Z,29.90
2022-07-26T14:13:38.391Z,29.70
2022-07-26T14:16:49.732Z,29.50
2022-07-26T14:19:48.109Z,29.50
2022-07-26T14:22:34.635Z,29.60
2022-07-26T14:30:00.903Z,29.70
2022-07-26T14:32:47.877Z,29.90
2022-07-26T14:35:59.316Z,29.40
2022-07-26T14:38:45.160Z,29.40
2022-07-26T14:42:22.127Z,29.90
2022-07-26T14:45:10.001Z,30.10
2022-07-26T14:47:56.701Z,30.40
2022-07-26T14:51:13.617Z,30.40
2022-07-26T14:53:59.548Z,30.50
2022-07-26T14:56:45.384Z,30.50
2022-07-26T14:59:31.011Z,30.60
2022-07-26T15:02:44.067Z,30.50
2022-07-26T15:05:30.430Z,30.10
2022-07-26T15:08:41.262Z,29.90
2022-07-26T15:11:27.180Z,30.20
2022-07-26T15:14:42.206Z,30.00
2022-07-26T15:17:54.124Z,29.90
2022-07-26T15:20:48.414Z,29.50
2022-07-26T15:24:10.485Z,29.80
2022-07-26T15:26:59.787Z,30.10
2022-07-26T15:29:47.938Z,30.00
2022-07-26T15:32:35.771Z,29.70
2022-07-26T15:35:21.817Z,29.60
2022-07-26T15:38:52.204Z,29.50
2022-07-26T15:42:31.045Z,29.20
2022-07-26T15:45:44.277Z,29.40
2022-07-26T15:48:31.065Z,29.70
2022-07-26T15:51:17.202Z,29.70
2022-07-26T15:54:04.742Z,29.60
2022-07-26T15:56:50.341Z,29.60
2022-07-26T15:59:36.103Z,29.40
2022-07-26T16:02:21.954Z,29.50
2022-07-26T16:05:09.232Z,29.60
2022-07-26T16:07:54.922Z,29.50
2022-07-26T16:10:40.604Z,29.40
2022-07-26T16:13:26.303Z,29.00
2022-07-26T16:16:12.554Z,28.90
2022-07-26T16:18:58.711Z,28.90
2022-07-26T16:21:45.203Z,28.60
2022-07-26T16:24:31.711Z,28.70
2022-07-26T16:27:17.486Z,28.70
2022-07-26T16:30:03.609Z,28.70
2022-07-26T16:32:54.721Z,28.60
2022-07-26T16:36:47.555Z,28.70
2022-07-26T16:39:33.882Z,28.60
2022-07-26T16:42:22.420Z,28.50
2022-07-26T16:45:09.135Z,28.30
2022-07-26T16:47:59.826Z,28.20
2022-07-26T16:50:45.971Z,28.20
2022-07-26T16:53:31.689Z,28.10
2022-07-26T16:56:42.566Z,28.10
2022-07-26T16:59:31.015Z,28.10
2022-07-26T17:02:16.942Z,28.10
2022-07-26T17:05:03.718Z,28.00
2022-07-26T17:07:49.174Z,28.00
2022-07-26T17:10:34.712Z,27.80
2022-07-26T17:13:20.467Z,27.70
2022-07-26T17:16:06.183Z,27.50
2022-07-26T17:18:53.865Z,27.30
2022-07-26T17:21:39.959Z,27.10
2022-07-26T17:24:25.625Z,27.20
2022-07-26T17:27:11.160Z,27.10
2022-07-26T17:29:57.294Z,27.10
2022-07-26T17:32:42.984Z,27.00
2022-07-26T17:35:28.592Z,27.00
2022-07-26T17:38:14.315Z,27.00
2022-07-26T17:41:00.785Z,26.90
2022-07-26T17:43:47.419Z,26.80
2022-07-26T17:46:33.214Z,26.70
2022-07-26T17:49:19.083Z,26.70
2022-07-26T17:52:04.963Z,26.60
2022-07-26T17:54:53.907Z,26.50
2022-07-26T17:57:40.018Z,26.50
2022-07-26T18:00:28.867Z,26.50
2022-07-26T18:03:15.101Z,26.50
2022-07-26T18:06:01.063Z,26.30
2022-07-26T18:08:47.208Z,26.20
2022-07-26T18:11:33.167Z,26.00
2022-07-26T18:14:18.681Z,25.90
2022-07-26T18:17:04.186Z,25.70
2022-07-26T18:19:49.856Z,25.70
2022-07-26T18:22:35.618Z,25.60
2022-07-26T18:25:21.240Z,25.50
2022-07-26T18:28:07.405Z,25.50
2022-07-26T18:30:53.140Z,25.50
2022-07-26T18:33:38.626Z,25.50
2022-07-26T18:36:24.359Z,25.40
2022-07-26T18:39:10.323Z,25.40
2022-07-26T18:41:56.270Z,25.40
2022-07-26T18:44:41.831Z,25.30
2022-07-26T18:47:27.458Z,25.30
2022-07-26T18:50:13.123Z,25.20
2022-07-26T18:53:03.083Z,25.10
2022-07-26T18:55:49.099Z,25.10
2022-07-26T18:58:35.015Z,25.10
2022-07-26T19:01:20.617Z,25.00
2022-07-26T19:04:07.266Z,25.00
2022-07-26T19:06:53.227Z,24.90
2022-07-26T19:09:39.144Z,24.80
2022-07-26T19:12:24.720Z,24.80
2022-07-26T19:15:10.997Z,24.70
2022-07-26T19:17:56.750Z,24.60
2022-07-26T19:20:45.713Z,24.60
2022-07-26T19:23:31.528Z,24.50
2022-07-26T19:26:17.435Z,24.50
2022-07-26T19:29:03.078Z,24.40
2022-07-26T19:31:48.924Z,24.40
2022-07-26T19:34:34.937Z,24.40
2022-07-26T19:37:21.494Z,24.30
2022-07-26T19:40:07.819Z,24.30
2022-07-26T19:42:53.290Z,24.20
2022-07-26T19:45:39.922Z,24.20
2022-07-26T19:48:25.858Z,24.20
2022-07-26T19:51:11.310Z,24.00
2022-07-26T19:53:57.067Z,23.90
2022-07-26T19:56:42.852Z,23.70
2022-07-26T19:59:28.658Z,23.60
2022-07-26T20:02:14.754Z,23.50
2022-07-26T20:05:00.444Z,23.50
2022-07-26T20:07:47.879Z,23.40
2022-07-26T20:10:33.863Z,23.40
2022-07-26T20:13:19.428Z,23.30
2022-07-26T20:16:05.597Z,23.30
2022-07-26T20:18:51.062Z,23.30
2022-07-26T20:21:36.540Z,23.30
2022-07-26T20:24:22.288Z,23.30
2022-07-26T20:27:08.113Z,23.30
2022-07-26T20:29:58.794Z,23.30
2022-07-26T20:32:46.317Z,23.40
2022-07-26T20:35:32.172Z,23.40
2022-07-26T20:38:20.643Z,23.30
2022-07-26T20:41:07.156Z,23.30
2022-07-26T20:43:53.545Z,23.30
2022-07-26T20:46:42.542Z,23.20
2022-07-26T20:49:28.157Z,23.10
2022-07-26T20:52:14.211Z,22.90
2022-07-26T20:55:00.353Z,22.90
2022-07-26T20:57:47.613Z,22.90
2022-07-26T21:00:33.164Z,23.00
2022-07-26T21:03:18.708Z,22.90
2022-07-26T21:06:04.401Z,23.00
2022-07-26T21:08:50.468Z,23.00
2022-07-26T21:11:36.099Z,22.80
2022-07-26T21:14:22.677Z,22.60
2022-07-26T21:17:11.840Z,22.40
2022-07-26T21:19:58.896Z,22.20
2022-07-26T21:22:44.842Z,22.00
2022-07-26T21:25:30.356Z,21.80
2022-07-26T21:28:17.884Z,21.60
2022-07-26T21:31:03.646Z,21.50
2022-07-26T21:33:49.234Z,21.40
2022-07-26T21:36:37.988Z,21.20
2022-07-26T21:39:23.741Z,21.10
2022-07-26T21:42:10.394Z,21.00
2022-07-26T21:44:55.729Z,20.90
2022-07-26T21:47:41.363Z,20.90
2022-07-26T21:50:27.074Z,20.90
2022-07-26T21:53:12.662Z,20.70
2022-07-26T21:55:58.464Z,20.60
2022-07-26T21:58:44.194Z,20.50
2022-07-26T22:01:32.617Z,20.40
2022-07-26T22:04:18.152Z,20.40
2022-07-26T22:07:03.791Z,20.30
2022-07-26T22:09:52.502Z,20.20
2022-07-26T22:12:38.178Z,20.20
2022-07-26T22:15:23.798Z,20.20
2022-07-26T22:18:09.909Z,20.00
2022-07-26T22:20:56.441Z,20.00
2022-07-26T22:23:42.244Z,19.80
2022-07-26T22:26:31.200Z,19.80
2022-07-26T22:29:16.996Z,19.60
2022-07-26T22:32:02.469Z,19.60
2022-07-26T22:34:48.130Z,19.60
2022-07-26T22:37:33.679Z,19.60
2022-07-26T22:40:20.095Z,19.70
2022-07-26T22:43:06.251Z,19.60
2022-07-26T22:45:52.042Z,19.60
2022-07-26T22:48:38.979Z,19.60
2022-07-26T22:51:25.187Z,19.60
2022-07-26T22:54:10.983Z,19.60
2022-07-26T22:56:56.723Z,19.50
2022-07-26T22:59:42.406Z,19.40
2022-07-26T23:02:28.038Z,19.40
2022-07-26T23:05:13.788Z,19.40
2022-07-26T23:08:03.625Z,19.30
2022-07-26T23:10:49.739Z,19.40
2022-07-26T23:13:35.324Z,19.40
2022-07-26T23:16:20.718Z,19.40
2022-07-26T23:19:08.790Z,19.50
2022-07-26T23:21:54.925Z,19.50
2022-07-26T23:24:40.489Z,19.60
2022-07-26T23:27:29.123Z,19.60
2022-07-26T23:30:14.818Z,19.50
2022-07-26T23:33:00.564Z,19.60
2022-07-26T23:35:46.111Z,19.60
2022-07-26T23:38:31.483Z,19.50
2022-07-26T23:41:17.269Z,19.40
2022-07-26T23:44:03.170Z,19.40
2022-07-26T23:46:48.794Z,19.40
2022-07-26T23:49:34.253Z,19.40
2022-07-26T23:52:19.672Z,19.30
2022-07-26T23:55:05.452Z,19.30
2022-07-26T23:57:50.886Z,19.20
